Riverton, Washington
Current Conditions -  °F | °C
As of 11:53 PM on Monday 20 Oct 2014 (Local Time) from KSEA Reporting Station
Broken Clouds Broken Clouds  
Wind Chill: 55°   Ceiling: 6500
Heat Index: 55°   Visibility: 10mi
Dew Point: 51°   Wind: 7mph
Humidity: 86%   Direction: 170°S
Pressure: 29.81"   Gusts: NA
Location:  47.4488°N, 122.28°W
Report Text: KSEA 210653Z 17006KT 10SM BKN065 13/11 A2981 RMK AO2 SLP100 T01280106
Loading
Personal Weather Stations






























Interactive Weather Map
Tropical Storm Tracking
New forecast layout! Learn more

10-Day Weather Forecast

Advertisements
Track Severe Weather on mobile